Aérodrome :
LOGIN :

S'inscrire | Disclaimer

   EN    FR    IT 

 










Légende :    VFR   VFR Marginal   IFR   IFR Intensif   IFR Très Intensif
Visi : 
Plafond : 
>= 8 km
>= 3000ft
5 à 8 km
1000 à 3000 ft
1500m à 5 km
500 à 1000 ft
800 à 1500m
200 à 500 ft
< 800m
< 200 ft
Symboles :   Orages  Brouillard  Fortes neiges  Fortes précipitations  Vent > 20 kt
SIGMETs :   Divers  Orages  Givrage  Turbulence  Onde Orograph.  Cendres Volcan.






- Altitude de l'aérodrome : 249 ft


EGOS - RAF Shawbury

DERNIER METAR :
  • 172150Z 17007KT 9999 SHRA FEW030 OVC040 10/09 Q0998 TEMPO 6000 SHRA RMK BLU TEMPO WHT

METARs EXPIRÉS :
  • 172120Z 14005KT 9999 -SHRA FEW022 BKN040 10/09 Q0998 TEMPO 6000 SHRA RMK BLU TEMPO WHT
  • 172050Z 16006KT 9999 FEW025 BKN050 10/08 Q0999 TEMPO 6000 SHRA RMK BLU TEMPO WHT
  • 172020Z 17008KT 9999 SHRA FEW022 BKN050 10/08 Q0999 TEMPO 6000 SHRA RMK BLU TEMPO WHT
  • 171950Z 17010KT 9999 -SHRA FEW022 BKN050 10/08 Q0999 TEMPO 6000 SHRA BKN020 RMK BLU TEMPO WHT

TAF TAF EGOS
Valide du 17 à 21h jusqu'au 18 à 00h UTC


172012Z 1721/1724 17011KT 9999 FEW022
PROB30
TEMPO 1721/1724 6000 SHRA SCT020CB



MET'MAP, la Météo Aéronautique d'un coup d'oeil ! - Copyright ORBIFLY Décembre 2007 - Disclaimer

ORBIFLY MET'MAP TEAM :

Programmation & Développement : Alexandra Zaïnal
Conception & Développement : Baudouin d'Aumeries
Co-Programmation & Développement : Marc-Olivier Méhu
Soutien technique & logistique : Manuel Goepfert

Contact : metmap@orbifly.com




SOURCES & CREDITS :

   NOAA